createdAt,value
2023-03-19T00:02:17.032Z,100073.03
2023-03-19T00:07:19.674Z,100080.34
2023-03-19T00:12:21.358Z,100073.19
2023-03-19T00:17:22.772Z,100078.06
2023-03-19T00:22:24.692Z,100083.34
2023-03-19T00:27:26.216Z,100093.72
2023-03-19T00:32:27.642Z,100108.88
2023-03-19T00:37:29.128Z,100118.25
2023-03-19T00:42:31.440Z,100121.59
2023-03-19T00:47:32.874Z,100125.25
2023-03-19T00:52:34.273Z,100139.59
2023-03-19T00:57:35.722Z,100135.88
2023-03-19T01:02:37.228Z,100141.34
2023-03-19T01:07:38.755Z,100139.25
2023-03-19T01:12:40.262Z,100143.94
2023-03-19T01:17:42.391Z,100134.09
2023-03-19T01:22:44.668Z,100145.38
2023-03-19T01:27:46.257Z,100142.00
2023-03-19T01:32:47.762Z,100148.91
2023-03-19T01:37:49.214Z,100154.22
2023-03-19T01:43:03.535Z,100151.22
2023-03-19T01:48:06.324Z,100154.22
2023-03-19T01:53:12.387Z,100146.06
2023-03-19T01:58:14.203Z,100146.47
2023-03-19T02:03:16.335Z,100139.47
2023-03-19T02:08:21.011Z,100142.81
2023-03-19T02:13:23.209Z,100139.53
2023-03-19T02:18:25.539Z,100140.41
2023-03-19T02:23:50.747Z,100147.19
2023-03-19T02:28:53.599Z,100152.44
2023-03-19T02:34:00.650Z,100144.13
2023-03-19T02:39:03.819Z,100144.38
2023-03-19T02:44:06.575Z,100154.63
2023-03-19T02:49:07.976Z,100155.31
2023-03-19T02:54:09.541Z,100156.03
2023-03-19T02:59:10.969Z,100158.66
2023-03-19T03:04:12.573Z,100154.38
2023-03-19T03:09:14.216Z,100153.44
2023-03-19T03:14:15.728Z,100162.09
2023-03-19T03:19:17.227Z,100157.66
2023-03-19T03:24:18.908Z,100169.19
2023-03-19T03:29:20.676Z,100177.59
2023-03-19T03:34:22.096Z,100178.59
2023-03-19T03:39:23.823Z,100180.66
2023-03-19T03:44:25.237Z,100177.56
2023-03-19T03:49:27.004Z,100179.53
2023-03-19T03:54:28.452Z,100189.00
2023-03-19T03:59:29.910Z,100196.78
2023-03-19T04:04:31.371Z,100196.31
2023-03-19T04:09:33.078Z,100203.31
2023-03-19T04:14:34.715Z,100204.38
2023-03-19T04:19:36.250Z,100207.41
2023-03-19T04:24:37.696Z,100207.44
2023-03-19T04:29:39.188Z,100206.56
2023-03-19T04:34:41.720Z,100208.97
2023-03-19T04:39:44.400Z,100221.16
2023-03-19T04:44:45.845Z,100226.69
2023-03-19T04:49:47.536Z,100223.44
2023-03-19T04:54:48.939Z,100225.28
2023-03-19T04:59:50.605Z,100236.34
2023-03-19T05:04:52.133Z,100237.50
2023-03-19T05:09:54.284Z,100235.88
2023-03-19T05:14:55.915Z,100230.25
2023-03-19T05:19:57.474Z,100230.13
2023-03-19T05:24:59.470Z,100236.53
2023-03-19T05:30:02.033Z,100239.72
2023-03-19T05:35:04.122Z,100238.06
2023-03-19T05:40:07.040Z,100238.22
2023-03-19T05:45:08.917Z,100237.53
2023-03-19T05:50:11.755Z,100239.00
2023-03-19T05:55:13.283Z,100246.41
2023-03-19T06:00:16.001Z,100247.63
2023-03-19T06:05:17.543Z,100250.19
2023-03-19T06:10:19.141Z,100255.19
2023-03-19T06:15:21.135Z,100260.00
2023-03-19T06:20:22.627Z,100257.28
2023-03-19T06:25:24.259Z,100259.28
2023-03-19T06:30:26.574Z,100265.06
2023-03-19T06:35:28.134Z,100255.91
2023-03-19T06:40:29.706Z,100257.44
2023-03-19T06:45:31.548Z,100267.31
2023-03-19T06:50:33.196Z,100271.34
2023-03-19T06:55:35.292Z,100266.91
2023-03-19T07:00:37.208Z,100274.78
2023-03-19T07:05:38.705Z,100278.31
2023-03-19T07:10:40.286Z,100278.63
2023-03-19T07:15:41.720Z,100279.72
2023-03-19T07:20:43.211Z,100291.22
2023-03-19T07:25:44.845Z,100288.28
2023-03-19T07:30:46.294Z,100295.69
2023-03-19T07:35:48.297Z,100290.16
2023-03-19T07:41:01.249Z,100290.34
2023-03-19T07:46:03.776Z,100289.97
2023-03-19T07:51:05.695Z,100294.00
2023-03-19T07:56:07.527Z,100287.69
2023-03-19T08:01:09.031Z,100288.88
2023-03-19T08:06:10.837Z,100293.06
2023-03-19T08:11:12.292Z,100292.78
2023-03-19T08:16:13.811Z,100285.81
2023-03-19T08:21:15.634Z,100280.97
2023-03-19T08:26:17.100Z,100285.34
2023-03-19T08:31:18.534Z,100280.22
2023-03-19T08:36:20.043Z,100276.25
2023-03-19T08:41:22.112Z,100281.75
2023-03-19T08:46:24.468Z,100287.88
2023-03-19T08:51:26.364Z,100273.81
2023-03-19T08:56:27.917Z,100292.94
2023-03-19T09:01:29.316Z,100283.03
2023-03-19T09:06:31.584Z,100281.03
2023-03-19T09:11:33.096Z,100284.34
2023-03-19T09:16:34.684Z,100286.97
2023-03-19T09:21:36.938Z,100279.84
2023-03-19T09:26:38.981Z,100294.25
2023-03-19T09:31:40.585Z,100292.69
2023-03-19T09:36:42.430Z,100282.53
2023-03-19T09:42:08.791Z,100286.84
2023-03-19T09:47:27.309Z,100284.44
2023-03-19T09:52:43.969Z,100294.88
2023-03-19T09:57:46.332Z,100295.69
2023-03-19T10:02:52.829Z,100288.38
2023-03-19T10:08:22.153Z,100275.47
2023-03-19T10:13:37.836Z,100269.22
2023-03-19T10:18:49.873Z,100270.31
2023-03-19T10:24:02.623Z,100290.81
2023-03-19T10:29:14.165Z,100286.78
2023-03-19T10:34:37.981Z,100285.34
2023-03-19T10:39:41.931Z,100278.06
2023-03-19T10:45:02.518Z,100272.09
2023-03-19T10:50:04.816Z,100273.13
2023-03-19T10:55:24.596Z,100269.09
2023-03-19T11:00:32.468Z,100285.22
2023-03-19T11:05:35.140Z,100288.34
2023-03-19T11:10:37.677Z,100287.66
2023-03-19T11:15:39.589Z,100289.69
2023-03-19T11:20:41.517Z,100284.81
2023-03-19T11:25:54.709Z,100283.25
2023-03-19T11:31:08.588Z,100273.38
2023-03-19T11:36:16.844Z,100269.91
2023-03-19T11:41:50.844Z,100273.03
2023-03-19T11:47:27.142Z,100274.09
2023-03-19T11:52:38.177Z,100274.16
2023-03-19T11:57:47.444Z,100264.34
2023-03-19T12:03:05.170Z,100264.13
2023-03-19T12:08:17.353Z,100268.78
2023-03-19T12:13:27.168Z,100258.63
2023-03-19T12:18:44.827Z,100263.97
2023-03-19T12:24:17.396Z,100266.44
2023-03-19T12:29:28.081Z,100273.47
2023-03-19T12:34:49.763Z,100274.41
2023-03-19T12:40:07.813Z,100271.91
2023-03-19T12:45:35.811Z,100276.34
2023-03-19T12:50:41.649Z,100275.53
2023-03-19T12:55:50.313Z,100277.81
2023-03-19T13:00:58.902Z,100276.28
2023-03-19T13:06:06.524Z,100282.84
2023-03-19T13:11:17.492Z,100281.44
2023-03-19T13:16:42.509Z,100283.72
2023-03-19T13:21:46.545Z,100290.25
2023-03-19T13:26:49.841Z,100283.91
2023-03-19T13:31:52.326Z,100289.31
2023-03-19T13:37:02.096Z,100284.25
2023-03-19T13:42:09.256Z,100274.53
2023-03-19T13:47:25.788Z,100269.75
2023-03-19T13:52:27.190Z,100265.22
2023-03-19T13:57:36.170Z,100266.06
2023-03-19T14:02:37.687Z,100265.44
2023-03-19T14:07:41.856Z,100265.69
2023-03-19T14:12:45.241Z,100266.06
2023-03-19T14:18:03.712Z,100267.94
2023-03-19T14:23:11.693Z,100263.97
2023-03-19T14:28:18.505Z,100270.72
2023-03-19T14:33:32.659Z,100272.81
2023-03-19T14:38:39.945Z,100272.91
2023-03-19T14:44:09.369Z,100270.25
2023-03-19T14:49:26.131Z,100274.53
2023-03-19T14:55:08.785Z,100268.19
2023-03-19T15:00:18.215Z,100263.63
2023-03-19T15:05:31.465Z,100271.53
2023-03-19T15:10:44.578Z,100274.47
2023-03-19T15:16:33.907Z,100261.41
2023-03-19T15:21:37.493Z,100259.50
2023-03-19T15:26:39.477Z,100268.09
2023-03-19T15:31:52.877Z,100275.94
2023-03-19T15:37:04.502Z,100284.03
2023-03-19T15:42:07.875Z,100285.00
2023-03-19T15:47:15.872Z,100274.00
2023-03-19T15:52:21.181Z,100277.38
2023-03-19T15:57:24.610Z,100293.44
2023-03-19T16:02:28.443Z,100328.84
2023-03-19T16:07:42.227Z,100341.31
2023-03-19T16:12:49.505Z,100351.44
2023-03-19T16:17:50.977Z,100373.94
2023-03-19T16:22:58.680Z,100376.06
2023-03-19T16:28:00.873Z,100381.47
2023-03-19T16:33:04.739Z,100395.06
2023-03-19T16:38:28.372Z,100410.34
2023-03-19T16:43:34.662Z,100401.88
2023-03-19T16:48:36.654Z,100399.66
2023-03-19T16:53:38.460Z,100386.88
2023-03-19T16:58:43.710Z,100402.00
2023-03-19T17:03:48.100Z,100407.06
2023-03-19T17:08:49.877Z,100405.84
2023-03-19T17:13:53.677Z,100411.69
2023-03-19T17:18:56.247Z,100412.66
2023-03-19T17:23:59.397Z,100416.66
2023-03-19T17:29:01.810Z,100416.97
2023-03-19T17:34:16.878Z,100408.84
2023-03-19T17:39:19.513Z,100418.97
2023-03-19T17:44:20.952Z,100418.00
2023-03-19T17:49:37.616Z,100422.81
2023-03-19T17:54:39.207Z,100430.94
2023-03-19T17:59:40.931Z,100438.91
2023-03-19T18:04:42.396Z,100439.75
2023-03-19T18:09:43.851Z,100450.75
2023-03-19T18:14:45.325Z,100454.88
2023-03-19T18:19:50.666Z,100458.53
2023-03-19T18:24:52.210Z,100457.13
2023-03-19T18:29:53.642Z,100460.34
2023-03-19T18:34:55.215Z,100467.53
2023-03-19T18:39:56.676Z,100475.31
2023-03-19T18:44:58.098Z,100482.97
2023-03-19T18:49:59.669Z,100485.09
2023-03-19T18:55:01.168Z,100497.59
2023-03-19T19:00:02.962Z,100493.50
2023-03-19T19:05:04.673Z,100494.75
2023-03-19T19:10:07.522Z,100499.44
2023-03-19T19:15:18.564Z,100495.13
2023-03-19T19:20:23.134Z,100500.34
2023-03-19T19:25:27.513Z,100504.00
2023-03-19T19:30:29.771Z,100517.09
2023-03-19T19:35:32.414Z,100514.75
2023-03-19T19:40:34.213Z,100532.72
2023-03-19T19:45:37.700Z,100533.22
2023-03-19T19:50:39.096Z,100541.06
2023-03-19T19:55:41.501Z,100549.25
2023-03-19T20:00:47.764Z,100545.19
2023-03-19T20:05:55.238Z,100555.47
2023-03-19T20:10:57.339Z,100569.91
2023-03-19T20:15:59.887Z,100570.81
2023-03-19T20:21:02.278Z,100572.56
2023-03-19T20:26:03.988Z,100578.72
2023-03-19T20:31:05.797Z,100588.44
2023-03-19T20:36:08.860Z,100592.00
2023-03-19T20:41:22.226Z,100602.22
2023-03-19T20:46:24.636Z,100607.38
2023-03-19T20:51:31.371Z,100615.84
2023-03-19T20:56:37.716Z,100628.41
2023-03-19T21:01:39.182Z,100640.94
2023-03-19T21:06:52.560Z,100641.56
2023-03-19T21:11:54.689Z,100657.41
2023-03-19T21:16:56.195Z,100652.31
2023-03-19T21:21:57.708Z,100670.16
2023-03-19T21:26:59.292Z,100681.19
2023-03-19T21:32:00.739Z,100678.84
2023-03-19T21:37:02.213Z,100678.03
2023-03-19T21:42:09.523Z,100679.84
2023-03-19T21:47:13.445Z,100687.66
2023-03-19T21:52:17.635Z,100684.69
2023-03-19T21:57:19.377Z,100699.28
2023-03-19T22:02:26.739Z,100702.75
2023-03-19T22:07:28.155Z,100700.28
2023-03-19T22:12:32.232Z,100702.06
2023-03-19T22:17:34.270Z,100707.22
2023-03-19T22:22:35.677Z,100706.34
2023-03-19T22:27:38.700Z,100718.16
2023-03-19T22:32:40.212Z,100721.53
2023-03-19T22:37:41.819Z,100718.69
2023-03-19T22:42:44.776Z,100720.31
2023-03-19T22:47:46.455Z,100709.56
2023-03-19T22:52:48.751Z,100715.66
2023-03-19T22:57:50.224Z,100710.69
2023-03-19T23:02:57.435Z,100703.97
2023-03-19T23:07:59.416Z,100699.78
2023-03-19T23:13:00.972Z,100698.28
2023-03-19T23:18:03.585Z,100683.06
2023-03-19T23:23:06.039Z,100680.63
2023-03-19T23:28:17.974Z,100679.03
2023-03-19T23:33:20.951Z,100689.38
2023-03-19T23:38:23.214Z,100675.94
2023-03-19T23:43:27.942Z,100677.75
2023-03-19T23:48:35.867Z,100674.56
2023-03-19T23:53:37.750Z,100673.81
2023-03-19T23:58:43.041Z,100674.78
